Terminal Aerodrome Forecast
Issued by NWS Missoula, MT

Home | Current Version | Previous Version | Text Only | Print | Product List | Glossary On
Versions: 1 2 3 4 5 6 7 8 9 10 11 12 13
000
FTUS45 KMSO 051720
TAFGPI
TAF
KGPI 051720Z 0518/0618 VRB06KT P6SM VCSH BKN100
     FM060000 VRB10G39KT P6SM -TSRA SCT070CB BKN120
     FM060300 02013G20KT P6SM VCSH BKN050 OVC100
     FM061200 02020G35KT P6SM OVC060=

USA.gov is the U.S. government's official web portal to all federal, state and local government web resources and services.